Tiempo atmosférico en la estación meteorológica de Yecla, Murcia (640 m.)



Fecha
DESCASC
Temp. máxima en grados centígrados (hora)
DESCASC
Temp. mínima en grados centígrados (hora)
DESCASC
Temp. media en grados centígrados
DESCASC
Racha de viento máxima en m/sg (hora)
DESCASC
Velocidad máxima media en intervalos de 10 minutos(hora)
DESCASC
Precipitaciones diarias en mm
DESCASC
Precipitaciones de 00:00 a 06:00 en mm
DESCASC
Precipitaciones de 06:00 a 12:00 en mm
DESCASC
Precipitaciones de 12:00 a 18:00 en mm
DESCASC
Precipitaciones de 18:00 a 24:00 en mm
DESCASC
05-04-2020 18.2 (16:50) 2.7 (07:40) 10.5 6.94 (17:40) 3.06 (05:50) 0 0 0 0 0
04-04-2020 17 (15:40) 1.8 (06:20) 9.4 8.61 (14:50) 5 (14:50) 0 0 0 0 0
03-04-2020 17.1 (17:30) 5 (07:10) 11.1 11.39 (09:40) 7.22 (09:40) 0 0 0 0 0
02-04-2020 16.8 (16:00) 4.1 (00:00) 10.4 10.56 (16:30) 7.22 (16:30) 8 4.2 0 0 3.8
01-04-2020 17.3 (14:40) 4.9 (00:00) 11.1 14.17 (17:40) 10.28 (17:40) 13 5.2 0 1.2 6.6
31-03-2020 14.1 (14:50) 4.4 (00:00) 9.3 7.78 (05:30) 5 (23:20) 3.4 0.4 3 0 0
30-03-2020 15.4 (14:00) 4.7 (00:00) 10 9.44 (17:50) 6.39 (17:40) 5.6 0 0 2.8 2.8
29-03-2020 18.8 (16:20) 0.2 (00:00) 9.5 9.72 (13:00) 4.72 (17:20) 0 0 0 0 0
28-03-2020 12.3 (15:00) 3.4 (00:00) 7.9 6.11 (13:30) 3.61 (21:50) 0 0 0 0 0
27-03-2020 5.6 (00:00) 4 (00:00) 4.8 7.5 (03:10) 5 (03:10) 12 0 7 5 0
26-03-2020 15.4 (16:50) 4.5 (00:00) 9.9 13.33 (13:40) 5.83 (13:40) 0.2 0.2 0 0 0
25-03-2020 11.4 (15:00) 5.4 (00:00) 8.4 8.33 (00:30) 5 (00:10) 7 1 0 0.2 5.8
24-03-2020 9.4 (00:40) 6.6 (00:00) 8 13.61 (16:30) 8.33 (16:30) 38 16.2 15.8 6 0
23-03-2020 14.1 (15:20) 7.3 (00:00) 10.7 11.94 (18:20) 7.22 (17:20) 18.4 0 1.2 6.2 11
22-03-2020 11.3 (11:30) 4.2 (02:00) 7.8 5.28 (17:30) 3.06 (17:30) 5.6 0 0 4.4 1.2
21-03-2020 11.6 (11:30) 5.9 (00:00) 8.8 11.39 (19:40) 8.06 (18:10) 12.8 0 0 8.6 4.2
20-03-2020 11.4 (13:00) 7 (00:00) 9.2 9.17 (20:20) 5.83 (16:50) 0 0 0 0 0
19-03-2020 13.3 (13:50) 7.8 (00:00) 10.6 8.06 (14:20) 5.56 (14:20) 0 0 0 0 0
18-03-2020 13.9 (15:10) 8 (00:00) 10.9 12.5 (02:30) 7.22 (10:00) 0 0 0 0 0
17-03-2020 11.1 (17:00) 2.4 (00:00) 6.8 13.89 (20:00) 9.17 (19:30) 3.6 0 1.2 2.2 0.2
16-03-2020 10.8 (09:50) 3.1 (00:00) 7 17.5 (10:30) 10 (10:10) 21 1.4 9.6 4.6 5.4
15-03-2020 20.2 (14:50) 8.2 (00:00) 14.2 8.06 (14:30) 4.44 (16:50) 0 0 0 0 0
14-03-2020 21.1 (16:10) 4.7 (00:00) 12.9 6.39 (15:30) 3.61 (16:00) 0 0 0 0 0
13-03-2020 19.4 (16:20) 6.1 (07:30) 12.7 8.06 (16:30) 5.56 (16:40) 0 0 0 0 0
12-03-2020 26.2 (16:20) 6.4 (00:00) 16.3 6.11 (15:40) 3.61 (13:00) 0 0 0 0 0
11-03-2020 28.6 (15:50) 9 (00:00) 18.8 8.06 (10:40) 3.89 (18:30) 0 0 0 0 0

Gráficas

Temp. máximas Temp. mínimas Temp. medias Precipitaciones Rachas de viento máximas Velocidades máximas media en intervalos de 10 minutos

Datos horarios

Fecha y hora oficial Temperatura (ºC) Velocidad del viento (km/h) Dirección del viento Racha (km/h) Dirección de racha Precipitación (mm) Presión (hPa) Tendencia (hPa) Humedad (%)
2020-04-09 23:00:00 12.4 3 Sudoeste 6 Oeste 0 948.1 1.5 55
2020-04-09 22:00:00 12.9 4 Oeste 8 Sudoeste 0 947.7 1.4 42
2020-04-09 21:00:00 13.7 3 Sur 8 Sur 0 946.7 0.4 40
2020-04-09 20:00:00 14.7 5 Sudeste 15 Sur 0 946.6 0.2 38
2020-04-09 19:00:00 15.7 10 Sur 21 Sur 0 946.3 -0.2 35
2020-04-09 18:00:00 17.1 12 Sur 21 Sudeste 0 946.3 -0.6 31
2020-04-09 17:00:00 17.7 10 Sur 19 Sur 0 946.4 -0.9 31
2020-04-09 16:00:00 19.7 8 Sur 24 Sudeste 0 946.5 -1.4 28
2020-04-09 15:00:00 18.2 7 Sur 16 Sudoeste 0 946.9 -1.2 30
2020-04-09 14:00:00 17.5 6 Sudeste 18 Sudeste 0 947.3 -1 35
2020-04-09 13:00:00 16.8 9 Sur 21 Sudeste 0 947.9 0 37
2020-04-09 12:00:00 14.3 5 Sudeste 8 Sur 0 948.1 0.5 56
2020-04-09 11:00:00 12.4 6 Nordeste 17 Nordeste 0 948.3 1.2 67
2020-04-09 10:00:00 10.9 6 Nordeste 15 Nordeste 0 947.9 1.2 80
2020-04-09 09:00:00 8.3 0 Calma 5 Este 0 947.6 0.6 91
2020-04-09 08:00:00 8.3 4 Nordeste 9 Nordeste 0 947.1 0 91
2020-04-09 07:00:00 8.1 2 Sudeste 3 Sudeste 0 946.7 -0.8 91
2020-04-09 06:00:00 8.2 3 Sudoeste 4 Sudoeste 0 947 -1.3 90
2020-04-09 05:00:00 8.7 2 Sudoeste 4 Este 0 947.1 -1.7 90
2020-04-09 04:00:00 8.6 2 Sur 8 Sudoeste 0 947.5 -1.7 90
2020-04-09 03:00:00 8.5 6 Sudoeste 8 Oeste 0 948.3 -1.1 89
2020-04-09 02:00:00 8.9 2 Este 8 Nordeste 0 948.8 -0.3 88
2020-04-09 01:00:00 9.6 6 Nordeste 15 Nordeste 0 949.2 0.4 86
2020-04-09 00:00:00 10.3 9 Nordeste 15 Nordeste 0 949.4 1.5 83
2020-04-08 23:00:00 11.2 11 Nordeste 19 Nordeste 0 949.1 1.7 77
2020-04-08 22:00:00 12.6 8 Nordeste 12 Nordeste 0 948.8 1.7 64
2020-04-08 21:00:00 13.5 2 Sur 14 Sudoeste 0 947.9 0.7 52
2020-04-08 20:00:00 16.9 8 Sur 17 Sudeste 0 947.4 -0.1 39
2020-04-08 19:00:00 18.7 10 Sur 17 Sur 0 947.1 -1.1 34
2020-04-08 18:00:00 19.6 9 Sudeste 20 Sur 0 947.2 -1.6 31
2020-04-08 17:00:00 19.7 10 Sudeste 17 Sudeste 0 947.5 -1.9 32
2020-04-08 16:00:00 19.6 9 Sur 19 Sudeste 0 948.2 -1.7 31
2020-04-08 15:00:00 20 10 Sudeste 19 Sudeste 0 948.8 -1.5 29
2020-04-08 14:00:00 18.7 7 Sudeste 15 Sudeste 0 949.4 -1.2 32
2020-04-08 13:00:00 17.5 8 Sudeste 14 Sudeste 0 949.9 -0.7 28
2020-04-08 12:00:00 15.1 4 Nordeste 10 Este 0 950.3 -0.4 44
2020-04-08 11:00:00 12.8 5 Este 10 Nordeste 0 950.6 0.2 57
2020-04-08 10:00:00 10.5 4 Este 10 Nordeste 0 950.6 0.3 77
2020-04-08 09:00:00 7.9 5 Nordeste 9 Nordeste 0 950.7 0.5 89
2020-04-08 08:00:00 7.5 0 Calma 8 Noroeste 0 950.4 -0.1 91
2020-04-08 07:00:00 7.5 7 Oeste 10 Oeste 0 950.3 -0.7 91
2020-04-08 06:00:00 7 3 Oeste 9 Oeste 0 950.2 -1.2 91
2020-04-08 05:00:00 6.9 3 Oeste 9 Oeste 0 950.5 -1.3 90
2020-04-08 04:00:00 6.5 4 Sudoeste 11 Oeste 0 951 -0.9 89
2020-04-08 03:00:00 6.7 7 Oeste 9 Oeste 0 951.4 -0.3 86
2020-04-08 02:00:00 7.7 3 Oeste 10 Oeste 0 951.8 0.1 82
2020-04-08 01:00:00 9.2 7 Norte 13 Nordeste 0 951.9 0.6 76
2020-04-08 00:00:00 9.8 9 Nordeste 15 Nordeste 0 951.7 1.2 68
2020-04-07 23:00:00 10.6 9 Nordeste 19 Nordeste 0 951.7 1.8 67
2020-04-07 22:00:00 12 10 Nordeste 22 Nordeste 0 951.3 2.1 68
2020-04-07 21:00:00 13.5 14 Nordeste 24 Nordeste 0 950.5 1.2 65
2020-04-07 20:00:00 16 8 Sur 17 Sudeste 0 949.9 0.5 49
2020-04-07 19:00:00 18.2 10 Sudeste 19 Sur 0 949.2 -0.7 38
2020-04-07 18:00:00 19.1 8 Sudeste 21 Sudeste 0 949.3 -1.1 38
2020-04-07 17:00:00 19.3 7 Sudeste 20 Este 0 949.4 -1.3 40
2020-04-07 16:00:00 19.1 9 Sudeste 19 Sur 0 949.9 -1.2 37
2020-04-07 15:00:00 18.8 9 Este 19 Este 0 950.4 -1 37
2020-04-07 14:00:00 18 11 Este 19 Sudeste 0 950.7 -0.7 39
2020-04-07 13:00:00 17 7 Sur 22 Sudeste 0 951.1 0.4 40
2020-04-07 12:00:00 15.4 7 Sudeste 15 Este 0 951.4 0.9 42
2020-04-07 11:00:00 14.1 6 Este 14 Nordeste 0 951.4 0.9 59
2020-04-07 10:00:00 12.2 8 Este 13 Nordeste 0 950.7 0.6 75
2020-04-07 09:00:00 10.1 6 Nordeste 10 Nordeste 0 950.5 0.4 91
2020-04-07 08:00:00 8.8 2 Oeste 6 Oeste 0 950.5 0.6 91
2020-04-07 07:00:00 9.4 2 Oeste 7 Este 0 950.1 0 91
2020-04-07 06:00:00 10.1 4 Este 9 Nordeste 0 950.1 -0.2 91
2020-04-07 05:00:00 10.3 7 Nordeste 11 Nordeste 0 949.9 -0.4 91
2020-04-07 04:00:00 10.7 5 Nordeste 13 Nordeste 0 950.1 -0.3 91
2020-04-07 03:00:00 10.9 10 Nordeste 13 Nordeste 0 950.3 0 90
2020-04-07 02:00:00 11.2 6 Este 13 Este 0 950.3 0.1 89
2020-04-07 01:00:00 11.6 7 Este 10 Este 0 950.4 0.6 85
2020-04-07 00:00:00 12 7 Este 12 Este 0 950.3 1.4 81
2020-04-06 23:00:00 12.6 4 Nordeste 11 Este 0 950.2 1.9 78
2020-04-06 22:00:00 12.7 4 Nordeste 7 Nordeste 0 949.8 1.9 76
2020-04-06 21:00:00 13.4 3 Sudeste 17 Sudeste 0 948.9 1.3 73
2020-04-06 20:00:00 15.2 12 Sur 18 Sur 0 948.3 0.6 67
2020-04-06 19:00:00 17.6 12 Sur 19 Sur 0 947.9 0 58
2020-04-06 18:00:00 18.8 10 Sur 21 Sudeste 0 947.6 -0.5 54
2020-04-06 17:00:00 19.4 10 Sur 20 Sudeste 0 947.7 -0.6 50
2020-04-06 16:00:00 19 8 Sudoeste 19 Sur 0 947.9 -0.8 50
2020-04-06 15:00:00 19.5 6 Sur 17 Sudeste 0 948.1 -0.6 49
2020-04-06 14:00:00 19 8 Sur 19 Sudeste 0 948.3 -0.3 52
2020-04-06 13:00:00 17.5 9 Sur 17 Sudeste 0 948.7 0.8 55
2020-04-06 12:00:00 15.7 7 Sur 16 Sudeste 0 948.7 0.8 60
2020-04-06 11:00:00 13.7 3 Sudeste 11 Nordeste 0 948.6 1.6 70
2020-04-06 10:00:00 11.4 4 Este 10 Sudoeste 0 947.9 1.4 76
2020-04-06 09:00:00 10.3 7 Oeste 13 Oeste 0 947.9 1.5 84
2020-04-06 08:00:00 8.9 8 Oeste 13 Oeste 0 947 0.7 89
2020-04-06 07:00:00 9 9 Oeste 16 Sudoeste 0 946.5 -0.2 90
2020-04-06 06:00:00 8.6 4 Sudoeste 8 Sudoeste 0 946.4 -0.2 92
2020-04-06 05:00:00 8.2 2 Sudoeste 9 Oeste 0 946.3 -0.2 91
2020-04-06 04:00:00 8.2 0 Calma 3 Sudeste 0 946.7 -0.1 91
2020-04-06 03:00:00 8.6 0 Calma 9 Sudoeste 0 946.6 0.1 90
2020-04-06 02:00:00 8.6 0 Calma 4 Oeste 0 946.5 0.4 90
2020-04-06 01:00:00 8.3 2 Sudoeste 8 Oeste 0 946.8 1.3 90
2020-04-06 00:00:00 7.8 4 Sudoeste 6 Oeste 0 946.5 1.6 88
2020-04-05 23:00:00 9.1 2 Nordeste 9 Oeste 0 946.1 1.5 85
2020-04-05 22:00:00 11.1 2 Este 8 Nordeste 0 945.5 1.3 77
2020-04-05 21:00:00 12.4 2 Sudoeste 11 Sudeste 0 944.9 0.8 73
2020-04-05 20:00:00 14.9 6 Sudeste 12 Sudeste 0 944.6 0.4 61
2020-04-05 19:00:00 16.1 7 Sur 19 Sudeste 0 944.2 -0.5 57
2020-04-05 18:00:00 16.9 10 Sudeste 25 Sudeste 0 944.1 -1.4 53
2020-04-05 17:00:00 17.4 10 Sudeste 19 Este 0 944.2 -1.7 50
2020-04-05 16:00:00 17.6 10 Sudeste 18 Sudeste 0 944.7 -1.6 47
2020-04-05 15:00:00 16.3 5 Este 18 Sur 0 945.5 -0.9 48
2020-04-05 14:00:00 16.4 8 Sudeste 18 Sudeste 0 945.9 -0.4 44
2020-04-05 13:00:00 14.6 7 Sudeste 19 Sudeste 0 946.3 0.1 50
2020-04-05 12:00:00 14.1 7 Sudeste 15 Sudeste 0 946.4 0.3 46
2020-04-05 11:00:00 12.1 6 Este 12 Este 0 946.3 0.7 53
2020-04-05 10:00:00 10.1 5 Nordeste 9 Este 0 946.2 1.2 66
2020-04-05 09:00:00 6.6 2 Sudeste 12 Sudoeste 0 946.1 1.2 85
2020-04-05 08:00:00 3.3 9 Oeste 12 Sudoeste 0 945.6 0.8 88
2020-04-05 07:00:00 3.4 6 Oeste 10 Oeste 0 945 0 85
2020-04-05 06:00:00 4.2 7 Oeste 14 Oeste 0 944.9 -0.5 82
2020-04-05 05:00:00 5.7 10 Oeste 12 Oeste 0 944.8 -0.9 81
2020-04-05 04:00:00 7.4 6 Oeste 13 Oeste 0 945 -0.6 78
2020-04-05 03:00:00 7.9 9 Oeste 12 Sudoeste 0 945.4 -0.1 84
2020-04-05 02:00:00 8.1 9 Oeste 12 Oeste 0 945.7 0.1 88
2020-04-05 01:00:00 7.8 4 Sudoeste 4 Sudoeste 0 945.6 0 87
2020-04-05 00:00:00 8.2 2 Este 6 Oeste 0 945.5 0.5 84
2020-04-04 23:00:00 8.7 4 Sudoeste 8 Oeste 0 945.6 0.8 81
2020-04-04 22:00:00 9.5 4 Sudeste 14 Sur 0 945.6 1.3 76
2020-04-04 21:00:00 10.1 4 Sudeste 16 Sudeste 0 945 1.2 72
2020-04-04 20:00:00 11.3 9 Sudeste 22 Sudeste 0 944.8 1.1 61
2020-04-04 19:00:00 12.5 12 Sudeste 31 Sudeste 0 944.3 0.4 55
2020-04-04 18:00:00 14.1 14 Sudeste 28 Sudeste 0 943.8 -0.6 51
2020-04-04 17:00:00 15.3 15 Sudeste 30 Este 0 943.7 -0.9 45
2020-04-04 16:00:00 16.4 14 Sudeste 29 Sudeste 0 943.9 -1.1 40
2020-04-04 15:00:00 15.8 17 Sudeste 31 Sudeste 0 944.4 -0.7 42
2020-04-04 14:00:00 14.5 14 Sur 26 Sudoeste 0 944.6 -0.5 53
2020-04-04 13:00:00 14.9 14 Sudeste 29 Sudeste 0 945 0.4 55
2020-04-04 12:00:00 13.8 9 Sur 23 Sudeste 0 945.1 0.6 57
2020-04-04 11:00:00 11.2 8 Sur 13 Sudeste 0 945.1 1 71
2020-04-04 10:00:00 7.8 5 Nordeste 8 Nordeste 0 944.6 0.8 91
2020-04-04 09:00:00 5.4 4 Norte 14 Oeste 0 944.5 0.7 93
2020-04-04 08:00:00 1.8 4 Oeste 6 Oeste 0 944.1 0.1 92
2020-04-04 07:00:00 2.1 5 Sudoeste 10 Oeste 0 943.8 -0.2 92
2020-04-04 06:00:00 2.2 4 Oeste 7 Sudoeste 0 943.8 -0.5 92
2020-04-04 05:00:00 2.7 4 Sudoeste 9 Oeste 0 944 -0.3 91
2020-04-04 04:00:00 3.6 6 Oeste 10 Oeste 0 944 -0.5 90
2020-04-04 03:00:00 4.1 4 Sudoeste 11 Oeste 0 944.3 0 89
2020-04-04 02:00:00 5.2 8 Oeste 14 Oeste 0 944.3 0.1 89
2020-04-04 01:00:00 5.2 8 Oeste 12 Oeste 0 944.5 1.1 86
2020-04-04 00:00:00 6.5 9 Oeste 13 Sudoeste 0 944.3 1.7 82
2020-04-03 23:00:00 8.4 9 Oeste 18 Oeste 0 944.2 2.1 74
2020-04-03 22:00:00 9 10 Sudoeste 19 Sudoeste 0 943.4 1.5 73
2020-04-03 21:00:00 10.1 13 Sudoeste 20 Sudoeste 0 942.6 1 68
2020-04-03 20:00:00 12.6 12 Sur 27 Sur 0 942.1 0.3 59
2020-04-03 19:00:00 13.4 9 Sur 21 Sur 0 941.9 -0.1 57
2020-04-03 18:00:00 14.8 11 Sur 22 Sudeste 0 941.6 -0.9 54
2020-04-03 17:00:00 15 9 Sur 17 Oeste 0 941.8 -1 50
2020-04-03 16:00:00 15 3 Sudoeste 18 Sur 0 942 -1 48
2020-04-03 15:00:00 14.9 6 Sudoeste 15 Sudoeste 0 942.5 -0.6 49
2020-04-03 14:00:00 14 9 Sur 13 Sur 0 942.8 -0.2 55
2020-04-03 13:00:00 14.9 9 Sudeste 17 Sudeste 0 943 0.5 52
2020-04-03 12:00:00 13.1 7 Norte 22 Noroeste 0 943.1 1.2 56
2020-04-03 11:00:00 10 15 Noroeste 27 Noroeste 0 943 1.7 69
2020-04-03 10:00:00 8.8 19 Noroeste 41 Noroeste 0 942.5 1.9 73
2020-04-03 09:00:00 7.5 8 Noroeste 15 Norte 0 941.9 1.5 90
2020-04-03 08:00:00 6 2 Sudoeste 11 Sudoeste 0 941.3 1.4 91
2020-04-03 07:00:00 5.1 6 Sur 10 Noroeste 0 940.6 0.5 89
2020-04-03 06:00:00 6.1 4 Sur 17 Norte 0 940.4 0.2 86
2020-04-03 05:00:00 7.1 2 Sudeste 12 Norte 0 939.9 -0.5 88
2020-04-03 04:00:00 7.6 0 Calma 10 Norte 0 940.1 -0.2 89
2020-04-03 03:00:00 8 8 Norte 15 Norte 0 940.2 -0.1 86
2020-04-03 02:00:00 8.1 9 Norte 13 Noroeste 0 940.4 0.3 86
2020-04-03 01:00:00 8.2 5 Norte 12 Norte 0 940.3 0.8 88
2020-04-03 00:00:00 8.1 5 Nordeste 16 Nordeste 0 940.3 1.7 89
2020-04-02 23:00:00 8.2 8 Nordeste 12 Nordeste 0.8 940.1 2.4 89
2020-04-02 22:00:00 8.1 5 Nordeste 21 Nordeste 1.8 939.5 2.1 87
2020-04-02 21:00:00 8.2 15 Nordeste 28 Nordeste 0.8 938.6 1.9 85
2020-04-02 20:00:00 11.1 4 Sudoeste 10 Sudoeste 0 937.7 1.1 72
2020-04-02 19:00:00 10.8 4 Sudeste 18 Este 0.4 937.4 1.2 79
2020-04-02 18:00:00 11.7 8 Nordeste 28 Norte 0 936.7 0 55
2020-04-02 17:00:00 11.9 17 Norte 38 Norte 0 936.6 -0.8 55
2020-04-02 16:00:00 16.7 5 Sudeste 14 Este 0 936.2 -1.8 36
2020-04-02 15:00:00 14.7 3 Norte 12 Este 0 936.7 -1.3 49
2020-04-02 14:00:00 12.5 5 Nordeste 15 Este 0 937.4 -0.6 57
2020-04-02 13:00:00 12.2 8 Nordeste 16 Este 0 938 0.5 60
2020-04-02 12:00:00 11 8 Sudeste 13 Sudeste 0 938 0.8 69
2020-04-02 11:00:00 9.7 6 Este 16 Norte 0 938 1.3 70
2020-04-02 10:00:00 9.1 10 Norte 25 Norte 0 937.5 1 71
2020-04-02 09:00:00 7.5 5 Sur 10 Sudeste 0 937.2 0.5 83
2020-04-02 08:00:00 5.8 8 Sudeste 17 Sudeste 0 936.7 -0.2 88
2020-04-02 07:00:00 4.4 5 Sudoeste 10 Sudoeste 0 936.5 -0.7 92
2020-04-02 06:00:00 5.5 7 Oeste 10 Oeste 0 936.7 -0.9 92
2020-04-02 05:00:00 6.2 3 Sudoeste 6 Sur 0 936.9 -1.4 91
2020-04-02 04:00:00 7.2 4 Este 6 Nordeste 0 937.2 -1.6 90
2020-04-02 03:00:00 7.4 4 Sur 12 Norte 0 937.6 -1.9 89
2020-04-02 02:00:00 7.8 10 Norte 16 Nordeste 0.2 938.3 -0.3 85
2020-04-02 01:00:00 8 4 Nordeste 27 Oeste 4 938.8 1.4 88
2020-04-02 00:00:00 8.6 5 Sudoeste 17 Sudoeste 4.6 939.5 2.5 87
2020-04-01 23:00:00 9.6 7 Oeste 22 Este 1.4 938.6 2.1 84
2020-04-01 22:00:00 9.9 5 Nordeste 12 Nordeste 0.6 937.4 0.9 83
2020-04-01 21:00:00 10.6 3 Este 15 Noroeste 0 937 0.6 75
2020-04-01 20:00:00 11.5 15 Norte 33 Norte 0 936.5 0.5 66
2020-04-01 19:00:00 11.3 10 Norte 48 Noroeste 0 936.5 0.3 73
2020-04-01 18:00:00 10.7 24 Noroeste 51 Noroeste 1.2 936.4 -0.7 72
2020-04-01 17:00:00 15.3 12 Norte 24 Norte 0 936 -1.6 51
2020-04-01 16:00:00 15.2 5 Nordeste 23 Norte 0 936.2 -1.9 48
2020-04-01 15:00:00 16.6 5 Oeste 28 Sudoeste 0 937.1 -1.2 50
2020-04-01 14:00:00 15.5 8 Nordeste 23 Noroeste 0 937.6 -0.6 52
2020-04-01 13:00:00 14.3 9 Norte 19 Oeste 0 938.1 0 55
2020-04-01 12:00:00 13.7 9 Norte 19 Nordeste 0 938.3 0.7 62
2020-04-01 11:00:00 13.3 8 Este 14 Nordeste 0 938.2 1.2 67
2020-04-01 10:00:00 10.9 4 Este 8 Este 0 938.1 1.2 83
2020-04-01 09:00:00 7.7 3 Sur 12 Oeste 0 937.6 0.5 92
2020-04-01 08:00:00 5 4 Sudoeste 9 Sudoeste 0 937 -0.5 90
2020-04-01 07:00:00 6.6 9 Oeste 14 Oeste 0 936.9 -0.3 90
2020-04-01 06:00:00 7.9 8 Sudeste 41 Noroeste 1.2 937.1 -0.6 87
2020-04-01 05:00:00 8.3 19 Noroeste 39 Oeste 4 937.5 -0.4 88
2020-04-01 04:00:00 8.6 3 Este 10 Este 0 937.2 -0.9 92
2020-04-01 03:00:00 8.7 4 Este 15 Este 0 937.7 -0.6 92
2020-04-01 02:00:00 8.7 9 Nordeste 20 Nordeste 0 937.9 0.1 92
2020-04-01 01:00:00 8.7 13 Este 21 Este 0 938.1 1 92
2020-04-01 00:00:00 8.8 12 Este 28 Nordeste 0 938.3 1.8 92
2020-03-31 23:00:00 9.1 17 Nordeste 27 Nordeste 0 937.8 2 91
2020-03-31 22:00:00 9.8 12 Nordeste 21 Nordeste 0 937.1 1.7 89
2020-03-31 21:00:00 10.1 10 Nordeste 21 Nordeste 0 936.5 1.5 87
2020-03-31 20:00:00 11 14 Nordeste 22 Nordeste 0 935.8 0.9 82
2020-03-31 19:00:00 12.1 14 Nordeste 22 Nordeste 0 935.4 0.6 76
2020-03-31 18:00:00 13.3 13 Nordeste 22 Nordeste 0 935 0.1 71
2020-03-31 17:00:00 12.4 9 Este 15 Sudeste 0 934.9 -0.1 74
2020-03-31 16:00:00 13.5 9 Sudeste 17 Sudeste 0 934.8 -0.7 67
2020-03-31 15:00:00 13.8 7 Sudeste 17 Este 0 934.9 -0.4 63
2020-03-31 14:00:00 13.3 7 Este 19 Este 0 935 -0.6 64
2020-03-31 13:00:00 10.8 7 Nordeste 21 Nordeste 0 935.5 0.1 75
2020-03-31 12:00:00 8.9 8 Nordeste 17 Nordeste 0 935.3 0.1 88
2020-03-31 11:00:00 6.2 6 Nordeste 14 Nordeste 0 935.6 1.3 93
2020-03-31 10:00:00 5.2 9 Nordeste 19 Nordeste 0 935.4 1.3 94
2020-03-31 09:00:00 4.5 9 Nordeste 18 Nordeste 2 935.2 0.9 94
2020-03-31 08:00:00 4.4 11 Nordeste 26 Nordeste 0.8 934.3 -0.6 94
2020-03-31 07:00:00 4.7 15 Nordeste 24 Nordeste 0.2 934.1 -1 94
2020-03-31 06:00:00 4.9 14 Nordeste 28 Nordeste 0 934.3 -1.8 94
2020-03-31 05:00:00 5.1 12 Nordeste 25 Nordeste 0 934.9 -1.7 93
2020-03-31 04:00:00 5.5 15 Nordeste 27 Nordeste 0.2 935.1 -1.9 93
2020-03-31 03:00:00 5.6 14 Nordeste 25 Nordeste 0 936.1 -1.2 93
2020-03-31 02:00:00 5.4 16 Nordeste 27 Nordeste 0 936.6 -0.6 92
2020-03-31 01:00:00 5.5 14 Nordeste 27 Nordeste 0.2 937 -0.5 92
2020-03-31 00:00:00 5.4 9 Nordeste 29 Nordeste 0.8 937.3 0.1 92
2020-03-30 23:00:00 5.3 19 Este 32 Nordeste 1.2 937.2 0.2 92
2020-03-30 22:00:00 5.5 17 Nordeste 30 Nordeste 0.4 937.5 0.8 92
2020-03-30 21:00:00 5.9 17 Nordeste 32 Nordeste 0 937.2 0.6 89
2020-03-30 20:00:00 6 13 Nordeste 31 Nordeste 0.2 937 0.4 90
2020-03-30 19:00:00 7.1 20 Nordeste 33 Nordeste 0.2 936.7 0 90
2020-03-30 18:00:00 7.9 20 Nordeste 34 Nordeste 0.4 936.6 -0.5 89
2020-03-30 17:00:00 9.7 16 Nordeste 31 Este 0.6 936.6 -1.2 88
2020-03-30 16:00:00 11.3 16 Este 28 Este 1.8 936.7 -1.5 82
2020-03-30 15:00:00 14.1 9 Este 20 Este 0 937.1 -1.7 57
2020-03-30 14:00:00 14.8 9 Este 27 Nordeste 0 937.8 -1.1 50
2020-03-30 13:00:00 14.5 12 Nordeste 20 Nordeste 0 938.2 -0.4 54
2020-03-30 12:00:00 13.2 12 Este 19 Este 0 938.8 0.3 56
2020-03-30 11:00:00 10.9 4 Este 8 Este 0 938.9 0.6 72
2020-03-30 10:00:00 8.3 2 Sur 6 Este 0 938.6 0.3 83
2020-03-30 09:00:00 7.2 3 Oeste 7 Noroeste 0 938.5 0 87
2020-03-30 08:00:00 6.5 7 Oeste 12 Oeste 0 938.3 -0.6 88
2020-03-30 07:00:00 5.6 2 Sudoeste 6 Oeste 0 938.3 -1 87
2020-03-30 06:00:00 5.7 3 Sudoeste 11 Oeste 0 938.5 -1.3 82
2020-03-30 05:00:00 6.1 4 Oeste 10 Sudeste 0 938.9 -1.3 81
2020-03-30 04:00:00 8.8 4 Nordeste 16 Oeste 0 939.3 -1.4 74
2020-03-30 03:00:00 8.7 2 Noroeste 15 Oeste 0 939.8 -1.2 74
2020-03-30 02:00:00 11 12 Oeste 23 Oeste 0 940.2 -1 65
2020-03-30 01:00:00 12.2 18 Oeste 26 Oeste 0 940.7 -0.5 60
2020-03-30 00:00:00 10.5 12 Oeste 21 Oeste 0 941 0.1 69
2020-03-29 23:00:00 10.8 10 Sudoeste 16 Oeste 0 941.2 0.3 64
2020-03-29 22:00:00 10.3 8 Sudoeste 13 Sudoeste 0 941.2 0.3 66
2020-03-29 21:00:00 11.7 10 Sudoeste 13 Oeste 0 940.9 0 62
2020-03-29 20:00:00 16.4 8 Oeste 16 Oeste 0 940.9 -0.4 36
2020-03-29 19:00:00 18 7 Oeste 23 Oeste 0 940.9 -1 31
2020-03-29 18:00:00 18.2 12 Sudoeste 23 Oeste 0 940.9 -1.6 31
2020-03-29 17:00:00 18.1 15 Oeste 30 Oeste 0 941.3 -1.7 31
2020-03-29 16:00:00 17.9 14 Sudoeste 30 Oeste 0 941.9 -1.6 32
2020-03-29 15:00:00 17.5 14 Sudoeste 29 Oeste 0 942.5 -1.5 34
2020-03-29 14:00:00 16.9 12 Sudoeste 28 Nordeste 0 943 -1.1 41
2020-03-29 13:00:00 15.4 12 Nordeste 35 Norte 0 943.5 -0.5 41
2020-03-29 12:00:00 14.6 6 Noroeste 29 Noroeste 0 944 0 48
2020-03-29 11:00:00 12.8 8 Noroeste 22 Noroeste 0 944.1 0.3 50
2020-03-29 10:00:00 8.5 3 Este 9 Este 0 944 0.5 80
2020-03-29 09:00:00 4.2 0 Calma 10 Sudoeste 0 944 0.3 93
2020-03-29 08:00:00 0.8 5 Oeste 8 Oeste 0 943.8 -0.1 93
2020-03-29 07:00:00 0.4 3 Oeste 5 Oeste 0 943.5 -0.9 92
2020-03-29 06:00:00 0.4 2 Sudeste 6 Oeste 0 943.7 -1.3 92
2020-03-29 05:00:00 1 2 Este 9 Oeste 0 943.9 -1.2 91
2020-03-29 03:00:00 1.7 3 Oeste 4 Oeste 0 945 -0.1 88
2020-03-29 01:00:00 3.4 3 Sudoeste 15 Oeste 0 945.1 0.1 85
2020-03-29 00:00:00 4.3 5 Oeste 15 Oeste 0 945.3 0.7 82
2020-03-28 23:00:00 4.9 12 Oeste 15 Oeste 0 945.1 1.2 82
2020-03-28 22:00:00 5 13 Oeste 16 Sudoeste 0 945 1.6 85
2020-03-28 21:00:00 5.2 8 Sudoeste 10 Oeste 0 944.6 1.4 83
2020-03-28 20:00:00 7 5 Oeste 6 Oeste 0 943.9 1 79
2020-03-28 19:00:00 10.8 3 Norte 9 Nordeste 0 943.4 0.5 58
2020-03-28 18:00:00 10.9 7 Nordeste 16 Nordeste 0 943.2 0.2 56
2020-03-28 17:00:00 11.2 10 Nordeste 17 Nordeste 0 942.9 -0.5 54
2020-03-28 16:00:00 11.3 8 Nordeste 18 Nordeste 0 942.9 -0.7 53
2020-03-28 15:00:00 12.3 6 Este 20 Norte 0 943 -0.8 49
2020-03-28 14:00:00 11 8 Este 22 Nordeste 0 943.4 -0.4 52
2020-03-28 13:00:00 10.2 8 Nordeste 16 Norte 0 943.6 0 56
2020-03-28 12:00:00 10.2 9 Norte 18 Nordeste 0 943.8 0.7 55
2020-03-28 11:00:00 9.7 7 Norte 15 Norte 0 943.8 1.2 57
2020-03-28 10:00:00 8.9 5 Este 13 Nordeste 0 943.6 1.2 65
2020-03-28 09:00:00 6.3 5 Nordeste 12 Norte 0 943.1 1.3 76
2020-03-28 08:00:00 5.1 3 Sudeste 12 Noroeste 0 942.6 1.1 89
2020-03-28 07:00:00 3.6 2 Sudeste 9 Noroeste 0 942.4 1.1 90
2020-03-28 06:00:00 4.3 0 Calma 7 Nordeste 0 941.8 0.4 90
2020-03-28 05:00:00 4.8 0 Calma 10 Nordeste 0 941.5 0.1 90
2020-03-28 04:00:00 5 9 Nordeste 19 Nordeste 0 941.3 0.2 89
2020-03-28 03:00:00 4.7 4 Este 13 Nordeste 0 941.4 0.2 91
2020-03-28 02:00:00 4.7 4 Nordeste 16 Nordeste 0 941.4 0.5 91
2020-03-28 01:00:00 5.1 9 Nordeste 20 Nordeste 0 941.1 0.6 91
2020-03-28 00:00:00 5.2 10 Nordeste 17 Nordeste 0 941.2 1.1 91
2020-03-27 23:00:00 5.1 8 Nordeste 18 Nordeste 0 940.9 1.7 91
2020-03-27 22:00:00 4.9 10 Nordeste 18 Nordeste 0 940.5 1.6 91
2020-03-27 21:00:00 5.2 11 Nordeste 19 Nordeste 0 940.1 1.6 90
2020-03-27 20:00:00 5.1 10 Nordeste 17 Nordeste 0 939.2 0.9 90
2020-03-27 19:00:00 5 11 Nordeste 19 Nordeste 0 938.9 0.5 89
2020-03-27 18:00:00 4.9 13 Nordeste 22 Nordeste 0 938.5 0 87
2020-03-27 17:00:00 4.7 11 Nordeste 18 Este 0.2 938.3 -0.6 89
2020-03-27 16:00:00 4.2 8 Este 21 Este 0.6 938.4 -0.3 88
2020-03-27 15:00:00 4.1 13 Este 19 Este 1.2 938.5 -0.1 88
2020-03-27 14:00:00 4.1 8 Este 22 Nordeste 1.6 938.9 0.4 89
2020-03-27 13:00:00 4.3 12 Este 19 Nordeste 1.4 938.7 0.4 88
2020-03-27 12:00:00 4.6 10 Este 18 Este 2 938.6 0.8 89
2020-03-27 11:00:00 4.4 11 Este 18 Este 2.6 938.5 1.1 89
2020-03-27 10:00:00 4.4 8 Este 16 Nordeste 1.4 938.3 1.3 91
2020-03-27 09:00:00 4.2 11 Nordeste 19 Nordeste 0.8 937.8 1 90
2020-03-27 08:00:00 4.4 11 Nordeste 21 Nordeste 0.2 937.4 0.6 87
2020-03-27 07:00:00 4.4 12 Nordeste 24 Nordeste 0 937 -0.2 85
2020-03-27 06:00:00 4.6 14 Nordeste 22 Nordeste 0 936.8 -0.4 83
2020-03-27 05:00:00 4.6 11 Nordeste 18 Nordeste 0 936.8 -0.7 84
2020-03-27 04:00:00 4.8 13 Nordeste 27 Nordeste 0 937.2 -0.4 85
2020-03-27 03:00:00 5.4 10 Nordeste 18 Nordeste 0 937.2 -0.4 85
2020-03-27 02:00:00 5.5 7 Nordeste 15 Nordeste 0 937.5 0.2 82
2020-03-27 01:00:00 5.5 5 Nordeste 12 Nordeste 0 937.6 1 80
2020-03-27 00:00:00 5.6 8 Nordeste 19 Nordeste 0 937.6 1.5 78
2020-03-26 23:00:00 5.7 10 Nordeste 23 Nordeste 0 937.3 2.2 75
2020-03-26 22:00:00 5.6 4 Este 15 Este 0 936.6 2 77
2020-03-26 21:00:00 6.5 8 Este 32 Nordeste 0 936.1 2.1 72
2020-03-26 20:00:00 7.3 19 Nordeste 34 Nordeste 0 935.1 1.7 72
2020-03-26 19:00:00 10.2 14 Nordeste 23 Nordeste 0 934.6 1.3 57
2020-03-26 18:00:00 13 14 Nordeste 36 Nordeste 0 934 0.4 40
2020-03-26 17:00:00 14.6 13 Oeste 33 Sudoeste 0 933.4 -0.4 27
2020-03-26 16:00:00 14.8 10 Sur 36 Norte 0 933.3 -0.7 29
2020-03-26 15:00:00 14.5 6 Noroeste 46 Norte 0 933.6 -0.7 32
2020-03-26 14:00:00 13.9 17 Nordeste -- -- 0 933.8 -0.9 39
2020-03-26 13:00:00 13 15 Nordeste 34 Sudoeste 0 934 -0.7 51
2020-03-26 12:00:00 12.2 11 Noroeste 40 Nordeste 0 934.3 -0.2 47
2020-03-26 11:00:00 11 6 Nordeste 33 Oeste 0 934.7 0 59
2020-03-26 10:00:00 9.9 15 Oeste 42 Oeste 0 934.7 -0.1 66
2020-03-26 09:00:00 9 16 Oeste 38 Oeste 0 934.5 -0.6 78
2020-03-26 08:00:00 5.6 3 Norte 9 Nordeste 0 934.7 -1 91
2020-03-26 07:00:00 5.2 2 Sudoeste 13 Oeste 0 934.8 -1.7 89
2020-03-26 06:00:00 5.9 10 Oeste 15 Sudoeste 0 935.1 -2.2 89
2020-03-26 05:00:00 6.3 10 Oeste 16 Oeste 0 935.7 -2.4 89
2020-03-26 04:00:00 6.5 6 Sudoeste 19 Sudoeste 0 936.5 -2.8 90
2020-03-26 03:00:00 6.3 7 Sudoeste 15 Oeste 0 937.3 -2.6 91
2020-03-26 02:00:00 6.4 13 Oeste 21 Sudoeste 0 938.1 -2.4 90
2020-03-26 01:00:00 6.3 6 Sudoeste 8 Sudoeste 0.2 939.3 -1.4 91
2020-03-26 00:00:00 6.3 3 Sudeste 7 Sudeste 0.8 939.9 -0.8 90
2020-03-25 23:00:00 6.4 3 Noroeste 14 Oeste 0.4 940.5 0 89
2020-03-25 22:00:00 6.4 12 Oeste 15 Oeste 0.2 940.7 0.2 90
2020-03-25 21:00:00 6.3 9 Sudoeste 19 Oeste 0.6 940.7 0.4 90
2020-03-25 20:00:00 6.2 9 Este 23 Norte 3.6 940.5 0.2 90
2020-03-25 19:00:00 7.3 15 Este 26 Nordeste 0.2 940.5 0.1 82
2020-03-25 18:00:00 8.2 9 Este 16 Este 0 940.3 -0.6 82
2020-03-25 17:00:00 8.3 12 Nordeste 27 Nordeste 0.2 940.3 -1.2 83
2020-03-25 16:00:00 10.4 9 Sudeste 17 Sudeste 0 940.4 -1.7 65
2020-03-25 15:00:00 11.4 5 Sur 14 Este 0 940.9 -1.3 65
2020-03-25 14:00:00 9.8 5 Este 15 Nordeste 0 941.5 -0.8 64
2020-03-25 13:00:00 8.4 8 Nordeste 15 Nordeste 0 942.1 -0.2 72
2020-03-25 12:00:00 7.4 8 Este 14 Este 0 942.2 0.3 78
2020-03-25 11:00:00 7.7 7 Nordeste 15 Nordeste 0 942.3 0.2 73
2020-03-25 10:00:00 7 8 Nordeste 14 Norte 0 942.3 0.5 79
2020-03-25 09:00:00 6.4 8 Norte 16 Norte 0 941.9 0.2 81
2020-03-25 08:00:00 5.7 10 Norte 19 Norte 0 942.1 0.4 83
2020-03-25 07:00:00 5.6 12 Norte 19 Norte 0 941.8 0.1 85
2020-03-25 06:00:00 5.6 9 Nordeste 18 Norte 0 941.7 -0.2 86
2020-03-25 05:00:00 6 12 Norte 22 Norte 0 941.7 -0.5 85
2020-03-25 04:00:00 6.1 10 Norte 21 Nordeste 0.2 941.7 -0.5 86
2020-03-25 03:00:00 6 13 Norte 21 Norte 0.4 941.9 -0.4 87
2020-03-25 02:00:00 6.3 9 Este 25 Nordeste 0.4 942.2 0.2 85
2020-03-25 01:00:00 6.4 14 Nordeste 30 Nordeste 0 942.2 0.3 83
2020-03-25 00:00:00 6.6 18 Nordeste 38 Nordeste 0 942.3 0.4 82
2020-03-24 23:00:00 6.9 24 Nordeste 41 Nordeste 0 942 0.9 83
2020-03-24 22:00:00 7 20 Nordeste 41 Nordeste 0 941.9 1.2 84
2020-03-24 21:00:00 7.2 19 Nordeste 35 Nordeste 0 941.9 1.6 84
2020-03-24 20:00:00 7.5 26 Nordeste 44 Nordeste 0 941.1 1.2 87
2020-03-24 19:00:00 7.6 23 Nordeste 42 Nordeste 0 940.7 0.8 89
2020-03-24 18:00:00 7.7 28 Nordeste 48 Nordeste 0 940.3 0.3 90
2020-03-24 17:00:00 7.9 26 Nordeste 49 Nordeste 0 939.9 -0.5 91
2020-03-24 16:00:00 8.2 29 Nordeste 46 Nordeste 0.4 939.9 -0.8 92
2020-03-24 15:00:00 8.9 22 Nordeste 41 Nordeste 0.8 940 -0.8 90
2020-03-24 14:00:00 9 18 Este 37 Nordeste 2.8 940.4 -0.2 91
2020-03-24 13:00:00 9.2 22 Nordeste 33 Nordeste 2 940.7 0.1 91
2020-03-24 12:00:00 9.3 16 Nordeste 44 Este 2.2 940.8 -0.1 91
2020-03-24 11:00:00 9 22 Nordeste 35 Nordeste 1.4 940.6 -0.5 91
2020-03-24 10:00:00 8.7 19 Nordeste 33 Nordeste 1.4 940.6 0.1 91
2020-03-24 09:00:00 8.5 14 Nordeste 21 Nordeste 2.6 940.9 0.7 92
2020-03-24 08:00:00 8.4 12 Este 22 Este 5.2 941.1 0.8 92
2020-03-24 07:00:00 8.2 10 Este 21 Este 3 940.5 0 92
2020-03-24 06:00:00 8.2 11 Nordeste 21 Nordeste 4 940.2 -0.4 92
2020-03-24 05:00:00 8.5 9 Nordeste 23 Nordeste 6.8 940.3 -0.9 92
2020-03-24 04:00:00 8.7 9 Nordeste 22 Nordeste 2 940.5 -0.4 92
2020-03-24 03:00:00 8.8 13 Nordeste 28 Este 2.8 940.6 -0.5 91
2020-03-24 02:00:00 9.3 14 Este 26 Este 0.4 941.2 -0.1 89
2020-03-24 01:00:00 9.4 14 Nordeste 24 Nordeste 0.2 940.9 -0.1 89
2020-03-24 00:00:00 9.2 13 Nordeste 22 Nordeste 0 941.1 0.2 88
2020-03-23 23:00:00 8.9 13 Nordeste 23 Nordeste 0 941.3 0.7 88
2020-03-23 22:00:00 9.1 13 Nordeste 27 Nordeste 0 941 0.4 90
2020-03-23 21:00:00 9.4 17 Nordeste 25 Nordeste 0.6 940.9 0.7 90
2020-03-23 20:00:00 9.6 16 Nordeste 30 Nordeste 0.2 940.6 1 90
2020-03-23 19:00:00 9.6 10 Este 43 Nordeste 10.2 940.6 0.9 90
2020-03-23 18:00:00 10.3 16 Este 39 Nordeste 3.6 940.2 0.2 87
2020-03-23 17:00:00 11.3 18 Nordeste 34 Nordeste 0 939.6 -1.4 81
2020-03-23 16:00:00 13.2 14 Este 27 Este 0 939.7 -2.3 69
2020-03-23 15:00:00 13.2 14 Este 23 Este 0 940 -2.5 67
2020-03-23 14:00:00 11.5 8 Este 17 Nordeste 0 941 -1 75
2020-03-23 13:00:00 8.9 5 Oeste 17 Este 2.6 942 0.6 85
2020-03-23 12:00:00 8.7 9 Este 21 Este 0.4 942.5 1.8 87
2020-03-23 11:00:00 9.4 9 Este 24 Nordeste 0 942 1.7 87
2020-03-23 10:00:00 9.8 10 Nordeste 14 Nordeste 0 941.4 1.6 90
2020-03-23 09:00:00 9.3 6 Nordeste 11 Nordeste 0 940.7 1.2 92
2020-03-23 08:00:00 8.3 7 Nordeste 13 Nordeste 0 940.3 1 93
2020-03-23 07:00:00 8.2 8 Nordeste 14 Nordeste 0.8 939.8 0.7 93
2020-03-23 06:00:00 8.4 8 Nordeste 14 Nordeste 0 939.5 0 92
2020-03-23 05:00:00 8.2 8 Nordeste 12 Nordeste 0 939.3 -0.3 93
2020-03-23 04:00:00 8.1 8 Nordeste 13 Nordeste 0 939.1 -0.6 93
2020-03-23 03:00:00 8 0 Calma 7 Nordeste 0 939.5 -0.5 92
2020-03-23 02:00:00 7.6 3 Sudeste 7 Nordeste 0 939.6 -0.4 92
2020-03-23 01:00:00 7.4 3 Este 7 Nordeste 0 939.7 0 92
2020-03-23 00:00:00 7.4 3 Este 8 Nordeste 0 940 0.7 91
2020-03-22 23:00:00 7.7 3 Nordeste 6 Norte 0 940 1.2 91
2020-03-22 22:00:00 7.8 3 Nordeste 7 Nordeste 0 939.7 1.5 91
2020-03-22 21:00:00 7.9 2 Este 7 Este 0 939.3 1.8 91
2020-03-22 20:00:00 8 5 Nordeste 9 Nordeste 0.2 938.8 1.6 90
2020-03-22 19:00:00 8.7 2 Norte 8 Este 1 938.2 1 89
2020-03-22 18:00:00 8.6 6 Este 19 Este 0.8 937.5 0.1 88
2020-03-22 17:00:00 9.1 6 Este 13 Este 0.6 937.2 -0.3 87
2020-03-22 16:00:00 9.7 8 Sur 13 Sur 0.2 937.2 -0.5 84
2020-03-22 15:00:00 10 7 Este 13 Este 0 937.4 -0.4 85
2020-03-22 14:00:00 10 7 Este 17 Sudeste 2.6 937.5 -0.4 84
2020-03-22 13:00:00 10.6 7 Sudeste 17 Sudeste 0.2 937.7 0.1 79
2020-03-22 12:00:00 11 9 Sudeste 17 Nordeste 0 937.8 0.2 75
2020-03-22 11:00:00 9.9 7 Este 13 Este 0 937.9 0.7 85
2020-03-22 10:00:00 8.4 6 Nordeste 14 Nordeste 0 937.6 0.9 92
2020-03-22 09:00:00 7.6 5 Nordeste 10 Nordeste 0 937.6 1 92
2020-03-22 08:00:00 7.1 3 Nordeste 8 Nordeste 0 937.2 0.6 93
2020-03-22 07:00:00 6.8 3 Este 6 Este 0 936.7 -0.1 92
2020-03-22 06:00:00 6.6 3 Este 17 Nordeste 0 936.6 -0.6 92
2020-03-22 05:00:00 6.4 3 Sudeste 8 Nordeste 0 936.6 -1 93
2020-03-22 04:00:00 5.6 4 Este 7 Este 0 936.8 -1.3 92
2020-03-22 03:00:00 4.5 2 Sudeste 12 Sudoeste 0 937.2 -1.2 92
2020-03-22 02:00:00 4.3 4 Sudoeste 9 Sudoeste 0 937.6 -1.2 91
2020-03-22 01:00:00 5.6 6 Oeste 9 Oeste 0 938.1 -0.9 90
2020-03-22 00:00:00 6 3 Oeste 13 Norte 0 938.4 -0.5 88
2020-03-21 23:00:00 7 9 Norte 16 Norte 0 938.8 0.2 85
2020-03-21 22:00:00 6.9 3 Sudeste 12 Norte 0.2 939 0.6 87
2020-03-21 21:00:00 7.3 12 Norte 34 Norte 0 938.9 0.8 80
2020-03-21 20:00:00 6.9 23 Noroeste -- -- 2.4 938.6 0.6 83
2020-03-21 19:00:00 7.1 22 Noroeste 39 Noroeste 1.6 938.4 1 83
2020-03-21 18:00:00 7.2 25 Noroeste 36 Oeste 3.4 938.1 0.2 83
2020-03-21 17:00:00 7.9 23 Oeste 35 Oeste 5 938 -0.6 89
2020-03-21 16:00:00 9.2 17 Nordeste 26 Nordeste 0.2 937.4 -1.4 90
2020-03-21 15:00:00 9.6 14 Nordeste 23 Nordeste 0 937.9 -1.4 88
2020-03-21 14:00:00 10.4 13 Nordeste 19 Nordeste 0 938.6 -0.8 80
2020-03-21 13:00:00 11.5 13 Nordeste 23 Nordeste 0 938.8 -0.8 76
2020-03-21 12:00:00 11.5 13 Nordeste 22 Este 0 939.3 -0.5 75
2020-03-21 11:00:00 11.2 12 Este 21 Nordeste 0 939.4 -0.4 75
2020-03-21 10:00:00 9.6 13 Nordeste 20 Nordeste 0 939.6 -0.2 83
2020-03-21 09:00:00 8.6 9 Nordeste 14 Nordeste 0 939.8 -0.1 87
2020-03-21 08:00:00 8.3 4 Nordeste 10 Nordeste 0 939.8 -0.1 89
2020-03-21 07:00:00 8.2 8 Nordeste 12 Nordeste 0 939.8 -0.3 89
2020-03-21 06:00:00 8.2 5 Nordeste 16 Nordeste 0 939.9 -0.7 87
2020-03-21 05:00:00 8.4 9 Nordeste 15 Nordeste 0 939.9 -1.4 88
2020-03-21 04:00:00 8.4 10 Nordeste 18 Este 0 940.1 -1.9 88
2020-03-21 03:00:00 8.5 12 Nordeste 18 Nordeste 0 940.6 -1.9 89
2020-03-21 02:00:00 8.7 7 Nordeste 13 Este 0 941.3 -1.5 90
2020-03-21 01:00:00 8.7 8 Nordeste 14 Nordeste 0 942 -0.8 90
2020-03-21 00:00:00 8.4 8 Nordeste 17 Norte 0 942.5 0.1 90
2020-03-20 23:00:00 8.7 11 Nordeste 19 Nordeste 0 942.8 1.1 89
2020-03-20 22:00:00 9.1 11 Nordeste 24 Nordeste 0 942.8 1.2 85
2020-03-20 21:00:00 9.1 14 Nordeste 33 Nordeste 0 942.4 0.7 84
2020-03-20 20:00:00 9.4 18 Nordeste 30 Nordeste 0 941.7 -0.4 83
2020-03-20 19:00:00 9.7 15 Nordeste 29 Nordeste 0 941.6 -0.8 80
2020-03-20 18:00:00 10.1 16 Nordeste 27 Nordeste 0 941.7 -1.3 78
2020-03-20 17:00:00 10.1 16 Nordeste 33 Nordeste 0 942.1 -1.1 80
2020-03-20 16:00:00 11.2 18 Nordeste 27 Nordeste 0 942.4 -1.3 74
2020-03-20 15:00:00 11 15 Nordeste 25 Nordeste 0 943 -1.1 72
2020-03-20 14:00:00 11.3 14 Nordeste 26 Nordeste 0 943.2 -0.8 66
2020-03-20 13:00:00 11.4 15 Nordeste 23 Nordeste 0 943.7 -0.2 69
2020-03-20 12:00:00 10.7 14 Nordeste 27 Este 0 944.1 0.5 77
2020-03-20 11:00:00 10.5 16 Este 27 Este 0 944 0.8 75
2020-03-20 10:00:00 10 17 Nordeste 29 Nordeste 0 943.9 0.8 77
2020-03-20 09:00:00 9.1 14 Nordeste 27 Nordeste 0 943.6 0.6 82
2020-03-20 08:00:00 7.9 15 Nordeste 22 Nordeste 0 943.2 0.1 87
2020-03-20 07:00:00 8 13 Nordeste 24 Nordeste 0 943.1 -0.1 86
2020-03-20 06:00:00 8.4 12 Nordeste 18 Nordeste 0 943 -0.7 88
2020-03-20 05:00:00 8.3 12 Nordeste 18 Nordeste 0 943.1 -1.5 90
2020-03-20 04:00:00 7.8 6 Nordeste 10 Nordeste 0 943.2 -1.8 90
2020-03-20 03:00:00 7.7 6 Nordeste 12 Nordeste 0 943.7 -1.6 88
2020-03-20 02:00:00 8.3 6 Nordeste 12 Nordeste 0 944.6 -1 87
2020-03-20 01:00:00 8.3 8 Nordeste 12 Nordeste 0 945 -0.5 86
2020-03-20 00:00:00 8.3 7 Nordeste 13 Nordeste 0 945.3 -0.2 86
2020-03-19 23:00:00 8.2 9 Nordeste 17 Este 0 945.6 0.4 85
2020-03-19 22:00:00 9.2 12 Nordeste 22 Nordeste 0 945.5 0.5 82
2020-03-19 21:00:00 9.9 12 Nordeste 22 Nordeste 0 945.5 0.5 81
2020-03-19 20:00:00 10 14 Nordeste 23 Nordeste 0 945.2 0 83
2020-03-19 19:00:00 10.2 13 Nordeste 24 Nordeste 0 945 -0.5 82
2020-03-19 18:00:00 10.8 14 Nordeste 28 Nordeste 0 945 -1 80
2020-03-19 17:00:00 11.5 16 Nordeste 26 Nordeste 0 945.2 -1.4 75
2020-03-19 16:00:00 12 15 Nordeste 28 Nordeste 0 945.5 -1.8 75
2020-03-19 15:00:00 12.7 17 Nordeste 29 Nordeste 0 946 -1.7 71
2020-03-19 14:00:00 13.2 17 Nordeste 28 Nordeste 0 946.6 -1.4 68
2020-03-19 13:00:00 12.1 17 Nordeste 27 Nordeste 0 947.3 -0.7 73
2020-03-19 12:00:00 12 14 Nordeste 26 Nordeste 0 947.7 -0.1 73
2020-03-19 11:00:00 11.2 14 Nordeste 23 Nordeste 0 948 0.2 76
2020-03-19 10:00:00 11.1 11 Nordeste 22 Nordeste 0 948 0.3 79
2020-03-19 09:00:00 9.2 15 Nordeste 22 Nordeste 0 947.8 0.1 89
2020-03-19 08:00:00 8.3 10 Nordeste 17 Nordeste 0 947.8 0.2 91
2020-03-19 07:00:00 7.9 8 Nordeste 19 Nordeste 0 947.7 -0.2 91
2020-03-19 06:00:00 8.1 12 Nordeste 20 Nordeste 0 947.7 -0.8 91
2020-03-19 05:00:00 8 8 Nordeste 19 Nordeste 0 947.6 -1.6 91
2020-03-19 04:00:00 8 10 Nordeste 17 Nordeste 0 947.9 -1.5 90
2020-03-19 03:00:00 7.8 9 Nordeste 18 Nordeste 0 948.5 -1.6 89
2020-03-19 02:00:00 8.2 11 Nordeste 21 Nordeste 0 949.2 -1.1 89
2020-03-19 01:00:00 8.1 13 Nordeste 22 Nordeste 0 949.4 -1 89
2020-03-19 00:00:00 8.1 11 Nordeste 21 Nordeste 0 950.1 -0.1 89
2020-03-18 23:00:00 8.3 12 Nordeste 24 Nordeste 0 950.3 0.4 88
2020-03-18 22:00:00 8.5 11 Nordeste 21 Nordeste 0 950.4 0.8 85
2020-03-18 21:00:00 8.6 9 Nordeste 22 Nordeste 0 950.2 0.8 80
2020-03-18 20:00:00 9.3 15 Nordeste 28 Nordeste 0 949.9 0.7 76
2020-03-18 19:00:00 10.5 20 Nordeste 33 Nordeste 0 949.6 0.1 74
2020-03-18 18:00:00 11.6 18 Nordeste 33 Nordeste 0 949.4 -0.5 70
2020-03-18 17:00:00 12.8 22 Nordeste 34 Nordeste 0 949.2 -1.2 64
2020-03-18 16:00:00 12.9 24 Nordeste 39 Este 0 949.5 -1.5 65
2020-03-18 15:00:00 13.6 23 Nordeste 38 Nordeste 0 949.9 -1.5 63
2020-03-18 14:00:00 12.9 24 Nordeste 38 Nordeste 0 950.4 -1.2 66
2020-03-18 13:00:00 12.1 22 Nordeste 36 Nordeste 0 951 -0.6 75
2020-03-18 12:00:00 11.5 21 Nordeste 43 Nordeste 0 951.4 0 74
2020-03-18 11:00:00 10.4 25 Nordeste 37 Nordeste 0 951.6 0.4 78
2020-03-18 10:00:00 10 26 Nordeste 38 Nordeste 0 951.6 0.6 80
2020-03-18 09:00:00 9.7 19 Nordeste 31 Nordeste 0 951.4 0.7 88
2020-03-18 08:00:00 9.4 18 Nordeste 32 Nordeste 0 951.2 0.2 89
2020-03-18 07:00:00 9.2 22 Nordeste 34 Nordeste 0 951 0.2 89
2020-03-18 06:00:00 9.3 19 Nordeste 33 Nordeste 0 950.7 -0.2 87
2020-03-18 05:00:00 9.4 17 Nordeste 36 Este 0 951 0.2 84
2020-03-18 04:00:00 9.4 18 Este 35 Este 0 950.8 -0.3 84
2020-03-18 03:00:00 9.5 21 Nordeste 45 Nordeste 0 950.9 -0.5 86
2020-03-18 02:00:00 9.7 20 Nordeste 40 Nordeste 0 950.8 -0.7 86
2020-03-18 01:00:00 9.9 23 Nordeste 39 Este 0 951.1 -0.1 87
2020-03-18 00:00:00 10 20 Nordeste 36 Nordeste 0 951.4 0.9 86
2020-03-17 23:00:00 10.3 19 Nordeste 39 Nordeste 0 951.5 2 87
2020-03-17 22:00:00 10.4 21 Nordeste 47 Nordeste 0 951.2 2.1 89
2020-03-17 21:00:00 10.7 24 Nordeste 48 Nordeste 0 950.5 1.6 92
2020-03-17 20:00:00 10.9 32 Nordeste 50 Nordeste 0 949.5 1 93
2020-03-17 19:00:00 11 27 Nordeste 45 Nordeste 0.2 949.1 0.6 93
2020-03-17 18:00:00 10.8 27 Nordeste 49 Nordeste 0 948.9 0.2 93
2020-03-17 17:00:00 11 18 Este 36 Nordeste 0 948.5 -0.5 93
2020-03-17 16:00:00 10.2 17 Nordeste 32 Nordeste 0 948.5 -1.1 92
2020-03-17 15:00:00 9.9 14 Nordeste 26 Nordeste 0 948.7 -0.6 91
2020-03-17 14:00:00 9.6 13 Nordeste 22 Nordeste 1 949 -0.4 92
2020-03-17 13:00:00 8.4 13 Nordeste 22 Nordeste 1.2 949.6 0.7 91
2020-03-17 12:00:00 8.4 15 Nordeste 20 Nordeste 0.4 949.3 1.2 92
2020-03-17 11:00:00 8.2 10 Nordeste 18 Nordeste 0.8 949.4 2.5 92
2020-03-17 10:00:00 7.8 10 Nordeste 18 Nordeste 0 948.9 2.5 91
2020-03-17 09:00:00 7.4 11 Nordeste 16 Nordeste 0 948.1 2.3 90
2020-03-17 08:00:00 7.1 4 Oeste 10 Norte 0 946.9 2.1 89
2020-03-17 07:00:00 7 6 Nordeste 16 Nordeste 0 946.4 1.7 90
2020-03-17 06:00:00 6.8 4 Nordeste 21 Sudeste 0 945.8 1.2 92
2020-03-17 05:00:00 5.7 4 Oeste 8 Oeste 0 944.8 0.4 93
2020-03-17 04:00:00 4.6 0 Calma 5 Nordeste 0 944.7 0.7 93
2020-03-17 03:00:00 4.1 2 Norte 13 Sudoeste 0 944.6 0.6 92
2020-03-17 02:00:00 2.7 8 Sudoeste 10 Oeste 0 944.4 0.8 92
2020-03-17 01:00:00 3.4 2 Sur 6 Sudoeste 0 944 1.2 91
2020-03-17 00:00:00 3.6 4 Sur 7 Sudoeste 0 944 1.8 91
2020-03-16 23:00:00 3.5 3 Sudoeste 9 Nordeste 0 943.6 2.1 90
2020-03-16 22:00:00 4.3 7 Nordeste 10 Nordeste 0.2 942.8 2.5 90
2020-03-16 21:00:00 4 6 Nordeste 14 Nordeste 0.2 942.2 2.4 90
2020-03-16 20:00:00 3.7 10 Nordeste 19 Norte 4.2 941.5 1.9 89
2020-03-16 19:00:00 4.1 13 Nordeste 21 Nordeste 0.8 940.3 1.3 85
2020-03-16 18:00:00 4.4 9 Nordeste 22 Norte 0.4 939.8 0.6 81
2020-03-16 17:00:00 4.6 5 Este 23 Noroeste 0.6 939.6 0.7 76
2020-03-16 16:00:00 4.5 16 Noroeste 37 Noroeste 0.4 939 -0.3 80
2020-03-16 15:00:00 4.5 11 Noroeste 37 Norte 0 939.2 0.5 83
2020-03-16 14:00:00 3.7 24 Norte 36 Noroeste 1.4 938.9 0.5 86
2020-03-16 13:00:00 4.5 20 Noroeste 38 Noroeste 1.8 939.3 1.3 85
2020-03-16 12:00:00 4.8 23 Norte 56 Noroeste 6.8 938.7 1.4 87
2020-03-16 11:00:00 4.5 35 Noroeste 63 Norte 2.8 938.4 1.5 86
2020-03-16 10:00:00 8.6 -- -- -- -- 0 938 1.2 81
2020-03-16 09:00:00 10.5 6 Sur 16 Sur 0 937.3 0.7 91
2020-03-16 08:00:00 9.9 6 Sudeste 15 Sur 0 936.9 0.1 92
2020-03-16 07:00:00 9.3 3 Oeste 7 Norte 0 936.8 -0.6 92
2020-03-16 06:00:00 8.7 2 Sudeste 9 Oeste 0 936.6 -2.1 91
2020-03-16 05:00:00 9.3 6 Oeste 9 Oeste 0 936.8 -2.7 90
2020-03-16 04:00:00 9.5 3 Nordeste 8 Este 0 937.4 -2.7 89
2020-03-16 03:00:00 9.7 2 Oeste 13 Oeste 0.6 938.7 -1.6 88
2020-03-16 02:00:00 9.8 4 Este 9 Este 0.8 939.5 -0.8 86
2020-03-16 01:00:00 9.8 4 Sudeste 17 Nordeste 0 940.1 -0.6 82
2020-03-16 00:00:00 10.5 16 Nordeste 21 Nordeste 0 940.3 0.1 80
2020-03-15 23:00:00 10.7 7 Nordeste 10 Nordeste 0 940.3 -0.2 74
2020-03-15 22:00:00 10.9 3 Este 12 Este 0 940.7 0.3 69
2020-03-15 21:00:00 11.6 3 Sudeste 18 Sudoeste 0 940.2 0.3 71
2020-03-15 20:00:00 12 11 Sudoeste 21 Sudoeste 0 940.5 0.4 69
2020-03-15 19:00:00 13.3 10 Sur 22 Sur 0 940.4 -0.1 64
2020-03-15 18:00:00 15.9 14 Sur 26 Sur 0 939.9 -1.1 47
2020-03-15 17:00:00 18.2 12 Sur 28 Sur 0 940.1 -1.9 39
2020-03-15 16:00:00 19.2 13 Sudeste 27 Sudeste 0 940.5 -2.6 37
2020-03-15 15:00:00 19.7 12 Sudeste 29 Sudeste 0 941 -2.9 38
2020-03-15 14:00:00 19.4 10 Sudeste 24 Sudeste 0 942 -2.5 34
2020-03-15 13:00:00 18 11 Sur 25 Sudeste 0 943.1 -1.5 35
2020-03-15 12:00:00 17.7 10 Sur 21 Sur 0 943.9 -0.7 37
2020-03-15 11:00:00 15 9 Sur 17 Sudoeste 0 944.5 0.2 47
2020-03-15 10:00:00 13 3 Este 8 Este 0 944.6 0.4 65
2020-03-15 09:00:00 10.2 2 Sudeste 8 Oeste 0 944.6 0.5 88
2020-03-15 08:00:00 8.6 3 Sudoeste 7 Noroeste 0 944.3 0 91
2020-03-15 07:00:00 8.7 5 Noroeste 6 Oeste 0 944.2 -0.3 90
2020-03-15 06:00:00 8.4 4 Oeste 6 Oeste 0 944.1 -0.9 90
2020-03-15 05:00:00 8.4 4 Este 6 Este 0 944.3 -1.1 87
2020-03-15 04:00:00 9.9 0 Calma 9 Nordeste 0 944.5 -1.1 88
2020-03-15 03:00:00 10.1 7 Nordeste 12 Nordeste 0 945 -0.9 87
2020-03-15 02:00:00 10.7 6 Nordeste 11 Nordeste 0 945.4 -0.6 88
2020-03-15 01:00:00 10.7 3 Este 8 Nordeste 0 945.6 -0.2 87
2020-03-15 00:00:00 10.8 0 Calma 9 Nordeste 0 945.9 0.6 85
2020-03-14 23:00:00 11.6 6 Nordeste 12 Nordeste 0 946 1.3 83
2020-03-14 22:00:00 11.8 7 Nordeste 10 Nordeste 0 945.8 1.3 77
2020-03-14 21:00:00 12.6 3 Noroeste 12 Oeste 0 945.3 1.1 72
2020-03-14 20:00:00 14.3 7 Sudoeste 16 Sudoeste 0 944.7 0.8 67
2020-03-14 19:00:00 16.2 7 Sudoeste 18 Sudeste 0 944.5 0.1 60
2020-03-14 18:00:00 18.5 10 Sur 17 Sudeste 0 944.2 -0.5 46
2020-03-14 17:00:00 20.3 7 Sudoeste 19 Sudeste 0 943.9 -1.5 43
2020-03-14 16:00:00 20.9 13 Sudeste 23 Sudeste 0 944.4 -1.7 42
2020-03-14 15:00:00 20.7 9 Sudoeste 17 Sudeste 0 944.7 -1.8 41
2020-03-14 14:00:00 19.7 9 Sur 18 Sudeste 0 945.4 -1.3 42
2020-03-14 13:00:00 18.1 10 Nordeste 15 Este 0 946.1 -0.5 47
2020-03-14 12:00:00 17.5 6 Sur 20 Sudeste 0 946.5 0.5 49
2020-03-14 11:00:00 15.9 8 Sudeste 14 Sur 0 946.7 1.2 56
2020-03-14 10:00:00 12.5 4 Nordeste 8 Nordeste 0 946.6 1.5 65
2020-03-14 09:00:00 8.8 4 Este 6 Sudeste 0 946 1 81
2020-03-14 08:00:00 5.2 5 Oeste 7 Oeste 0 945.5 0.8 86
2020-03-14 07:00:00 5 3 Sudoeste 9 Sudoeste 0 945.1 0.3 86
2020-03-14 06:00:00 5.7 5 Sudoeste 9 Sudoeste 0 945 -0.3 85
2020-03-14 05:00:00 6.6 3 Sudoeste 9 Sudoeste 0 944.7 -0.9 83
2020-03-14 04:00:00 6.6 6 Oeste 9 Oeste 0 944.8 -0.9 85
2020-03-14 03:00:00 8.5 0 Calma 9 Oeste 0 945.3 -0.4 82
2020-03-14 02:00:00 9.3 3 Sudeste 7 Oeste 0 945.6 -0.3 82
2020-03-14 01:00:00 9.6 8 Oeste 12 Oeste 0 945.7 0.3 83
2020-03-14 00:00:00 9.5 8 Oeste 12 Oeste 0 945.7 0.9 83
2020-03-13 23:00:00 10 3 Sur 8 Nordeste 0 945.9 1.4 82
2020-03-13 22:00:00 11.2 5 Nordeste 13 Nordeste 0 945.4 1.7 81
2020-03-13 21:00:00 11.9 8 Nordeste 16 Nordeste 0 944.8 1.4 78
2020-03-13 20:00:00 12.5 10 Nordeste 22 Nordeste 0 944.5 1 75
2020-03-13 19:00:00 13.9 15 Nordeste 23 Nordeste 0 943.7 0.1 69
2020-03-13 18:00:00 16.3 16 Nordeste 27 Nordeste 0 943.4 -0.6 59
2020-03-13 17:00:00 18 17 Nordeste 29 Nordeste 0 943.5 -1.4 52
2020-03-13 16:00:00 18.8 18 Nordeste 27 Nordeste 0 943.6 -2 50
2020-03-13 15:00:00 18.8 12 Nordeste 24 Nordeste 0 944 -1.7 48
2020-03-13 14:00:00 17.8 13 Nordeste 23 Nordeste 0 944.9 -1 52
2020-03-13 13:00:00 16.3 11 Este 24 Nordeste 0 945.6 -0.2 56
2020-03-13 12:00:00 15.2 15 Este 25 Nordeste 0 945.7 0.3 62
2020-03-13 11:00:00 12.8 14 Nordeste 24 Este 0 945.9 1.1 75
2020-03-13 10:00:00 11.9 13 Este 21 Este 0 945.8 1.7 79
2020-03-13 09:00:00 11 8 Nordeste 13 Nordeste 0 945.4 1.8 79
2020-03-13 08:00:00 7.4 3 Noroeste 8 Oeste 0 944.8 1.2 82
2020-03-13 07:00:00 6.5 3 Sudoeste 8 Oeste 0 944.1 0.8 82
2020-03-13 06:00:00 6.3 3 Sudoeste 8 Sudoeste 0 943.6 0.1 81
2020-03-13 05:00:00 6.8 0 Calma 5 Oeste 0 943.6 -0.3 77
2020-03-13 04:00:00 7.6 0 Calma 6 Oeste 0 943.3 -1 75
2020-03-13 03:00:00 8.1 3 Oeste 6 Sudoeste 0 943.5 -1.2 72
2020-03-13 02:00:00 10.4 2 Sudeste 10 Sudoeste 0 943.9 -0.7 63
2020-03-13 01:00:00 10.3 6 Oeste 12 Oeste 0 944.3 -0.1 65
2020-03-13 00:00:00 10.7 5 Oeste 14 Oeste 0 944.7 0.5 61
2020-03-12 23:00:00 12.9 9 Oeste 16 Oeste 0 944.6 0.7 53
2020-03-12 22:00:00 13.6 12 Sudoeste 16 Oeste 0 944.4 0.5 52
2020-03-12 21:00:00 14.6 5 Sudoeste 13 Oeste 0 944.2 0.4 53
2020-03-12 20:00:00 17.2 5 Sudoeste 10 Sudeste 0 943.9 0.1 45
2020-03-12 19:00:00 21.6 8 Sur 19 Sur 0 943.9 -0.5 32
2020-03-12 18:00:00 23.9 11 Sur 18 Sudeste 0 943.8 -1.1 26
2020-03-12 17:00:00 25.4 10 Sudeste 21 Sudoeste 0 943.8 -2.2 23
2020-03-12 16:00:00 25.6 9 Sur 22 Sudoeste 0 944.4 -2.5 23
2020-03-12 15:00:00 26 8 Sur 19 Sur 0 944.9 -2.3 23
2020-03-12 14:00:00 25.7 12 Sur 21 Sur 0 946 -1.4 25
2020-03-12 13:00:00 24.9 13 Sur 20 Sur 0 946.9 -0.6 27
2020-03-12 12:00:00 23.9 9 Sur 14 Sur 0 947.2 -0.3 29
2020-03-12 11:00:00 22.7 2 Oeste 8 Sudeste 0 947.4 -0.1 31
2020-03-12 10:00:00 18.4 2 Nordeste 4 Sudeste 0 947.5 0.1 46
2020-03-12 09:00:00 12.4 0 Calma 3 Este 0 947.5 0.2 69
2020-03-12 08:00:00 8.3 2 Oeste 8 Sudoeste 0 947.5 0.1 80
2020-03-12 07:00:00 6.7 3 Oeste 7 Sudoeste 0 947.4 -0.4 83
2020-03-12 06:00:00 7.2 4 Sudoeste 7 Sudoeste 0 947.3 -1.1 80
2020-03-12 05:00:00 8.6 3 Oeste 12 Oeste 0 947.4 -1.6 77
2020-03-12 04:00:00 8.5 10 Oeste 12 Oeste 0 947.8 -1.3 80
2020-03-12 03:00:00 8 2 Oeste 6 Oeste 0 948.4 -0.9 79
2020-03-12 02:00:00 9.8 2 Noroeste 8 Oeste 0 949 -0.4 76
2020-03-12 01:00:00 10.8 2 Oeste 15 Oeste 0 949.1 -0.2 70
2020-03-12 00:00:00 10.9 5 Oeste 12 Oeste 0 949.3 0.4 72
2020-03-11 23:00:00 12.3 10 Oeste 14 Oeste 0 949.4 0.8 68
2020-03-11 22:00:00 14.5 10 Oeste 12 Oeste 0 949.3 1.2 61
2020-03-11 21:00:00 15.7 9 Oeste 15 Oeste 0 948.9 1.2 57
2020-03-11 20:00:00 18.3 4 Sudoeste 14 Sudoeste 0 948.6 1 49
2020-03-11 19:00:00 22.3 13 Sudoeste 22 Sur 0 948.1 0.2 35
2020-03-11 18:00:00 27.5 6 Nordeste 12 Nordeste 0 947.7 -0.6 18
2020-03-11 17:00:00 28.2 4 Este 22 Este 0 947.6 -1.5 17
2020-03-11 16:00:00 27.9 6 Norte 24 Nordeste 0 947.9 -1.9 18
2020-03-11 15:00:00 27.2 13 Nordeste 22 Norte 0 948.3 -2 20
2020-03-11 14:00:00 27.3 6 Norte 23 Norte 0 949.1 -1.6 22
2020-03-11 13:00:00 26.6 8 Sudoeste 19 Norte 0 949.8 -0.9 23
2020-03-11 12:00:00 24.9 10 Sur 23 Oeste 0 950.3 -0.4 27
2020-03-11 11:00:00 23.2 9 Sudoeste 29 Noroeste 0 950.7 0.5 28
2020-03-11 10:00:00 21 7 Sudeste 16 Oeste 0 950.7 0.9 33
2020-03-11 09:00:00 13.7 3 Este 9 Norte 0 950.7 1.1 54
2020-03-11 08:00:00 11 4 Sur 9 Oeste 0 950.2 0.6 62
2020-03-11 07:00:00 9.9 4 Oeste 13 Norte 0 949.8 0.3 63
2020-03-11 06:00:00 14.3 6 Norte 22 Nordeste 0 949.6 -0.5 47
2020-03-11 05:00:00 16.3 10 Nordeste 21 Oeste 0 949.6 -0.7 41
2020-03-11 04:00:00 14.9 5 Este 16 Este 0 949.5 -1.3 44
2020-03-11 03:00:00 13.4 3 Oeste 12 Este 0 950.1 -1 48
2020-03-11 02:00:00 13.7 4 Sudeste 19 Este 0 950.3 -0.8 47
2020-03-11 01:00:00 12.8 6 Nordeste 21 Oeste 0 950.8 -0.2 50
2020-03-11 00:00:00 12.6 6 Nordeste 10 Este 0 951.1 0.3 53